sensor_id;sensor_type;location;lat;lon;timestamp;pressure;altitude;pressure_sealevel;temperature;humidity
13011;BME280;6786;57.632;11.962;2023-02-19T00:01:42;100316.09;;;18.71;39.04
13011;BME280;6786;57.632;11.962;2023-02-19T00:04:13;100313.56;;;18.69;38.97
13011;BME280;6786;57.632;11.962;2023-02-19T00:06:42;100312.56;;;18.70;38.99
13011;BME280;6786;57.632;11.962;2023-02-19T00:09:12;100312.69;;;18.69;38.92
13011;BME280;6786;57.632;11.962;2023-02-19T00:11:43;100325.13;;;18.70;39.03
13011;BME280;6786;57.632;11.962;2023-02-19T00:14:14;100319.78;;;18.70;38.97
13011;BME280;6786;57.632;11.962;2023-02-19T00:16:43;100250.06;;;18.24;39.01
13011;BME280;6786;57.632;11.962;2023-02-19T00:19:13;100158.44;;;17.65;39.01
13011;BME280;6786;57.632;11.962;2023-02-19T00:21:41;100233.28;;;18.22;38.97
13011;BME280;6786;57.632;11.962;2023-02-19T00:24:10;100326.81;;;18.71;39.04
13011;BME280;6786;57.632;11.962;2023-02-19T00:26:41;100320.88;;;18.67;39.01
13011;BME280;6786;57.632;11.962;2023-02-19T00:29:14;100319.78;;;18.70;38.96
13011;BME280;6786;57.632;11.962;2023-02-19T00:31:43;100232.03;;;18.16;38.96
13011;BME280;6786;57.632;11.962;2023-02-19T00:34:12;100236.13;;;18.20;38.91
13011;BME280;6786;57.632;11.962;2023-02-19T00:36:41;100216.41;;;18.12;38.87
13011;BME280;6786;57.632;11.962;2023-02-19T00:39:14;100254.97;;;18.19;38.90
13011;BME280;6786;57.632;11.962;2023-02-19T00:41:44;100319.78;;;18.70;38.96
13011;BME280;6786;57.632;11.962;2023-02-19T00:44:14;100316.09;;;18.71;38.89
13011;BME280;6786;57.632;11.962;2023-02-19T00:46:44;100137.34;;;17.62;38.98
13011;BME280;6786;57.632;11.962;2023-02-19T00:49:15;100316.09;;;18.71;38.92
13011;BME280;6786;57.632;11.962;2023-02-19T00:51:44;100312.69;;;18.69;38.88
13011;BME280;6786;57.632;11.962;2023-02-19T00:54:13;100302.31;;;18.66;38.83
13011;BME280;6786;57.632;11.962;2023-02-19T00:56:41;100130.44;;;17.59;38.98
13011;BME280;6786;57.632;11.962;2023-02-19T00:59:10;100306.09;;;18.63;39.07
13011;BME280;6786;57.632;11.962;2023-02-19T01:01:40;100326.81;;;18.71;38.97
13011;BME280;6786;57.632;11.962;2023-02-19T01:04:10;100326.81;;;18.71;38.89
13011;BME280;6786;57.632;11.962;2023-02-19T01:06:39;100314.41;;;18.70;38.88
13011;BME280;6786;57.632;11.962;2023-02-19T01:09:07;100171.38;;;17.79;38.86
13011;BME280;6786;57.632;11.962;2023-02-19T01:11:35;100325.94;;;18.70;38.83
13011;BME280;6786;57.632;11.962;2023-02-19T01:14:04;100333.00;;;18.71;38.80
13011;BME280;6786;57.632;11.962;2023-02-19T01:16:32;100332.16;;;18.71;38.84
13011;BME280;6786;57.632;11.962;2023-02-19T01:19:02;100329.47;;;18.71;38.77
13011;BME280;6786;57.632;11.962;2023-02-19T01:21:30;100323.13;;;18.72;38.72
13011;BME280;6786;57.632;11.962;2023-02-19T01:23:59;100328.47;;;18.72;38.77
13011;BME280;6786;57.632;11.962;2023-02-19T01:26:29;100327.66;;;18.71;38.82
13011;BME280;6786;57.632;11.962;2023-02-19T01:28:58;100323.13;;;18.72;38.80
13011;BME280;6786;57.632;11.962;2023-02-19T01:31:28;100234.13;;;18.13;38.71
13011;BME280;6786;57.632;11.962;2023-02-19T01:33:59;100244.28;;;18.19;38.77
13011;BME280;6786;57.632;11.962;2023-02-19T01:36:31;100337.22;;;18.74;38.58
13011;BME280;6786;57.632;11.962;2023-02-19T01:39:00;100336.22;;;18.75;38.74
13011;BME280;6786;57.632;11.962;2023-02-19T01:41:33;100337.22;;;18.74;38.60
13011;BME280;6786;57.632;11.962;2023-02-19T01:44:04;100344.25;;;18.75;38.64
13011;BME280;6786;57.632;11.962;2023-02-19T01:46:34;100340.75;;;18.74;38.64
13011;BME280;6786;57.632;11.962;2023-02-19T01:49:05;100347.94;;;18.74;38.52
13011;BME280;6786;57.632;11.962;2023-02-19T01:51:38;100342.59;;;18.74;38.54
13011;BME280;6786;57.632;11.962;2023-02-19T01:54:10;100333.84;;;18.72;38.55
13011;BME280;6786;57.632;11.962;2023-02-19T01:56:40;100155.78;;;17.65;38.58
13011;BME280;6786;57.632;11.962;2023-02-19T01:59:09;100344.41;;;18.73;38.64
13011;BME280;6786;57.632;11.962;2023-02-19T02:01:38;100347.94;;;18.74;38.60
13011;BME280;6786;57.632;11.962;2023-02-19T02:04:09;100244.56;;;18.16;38.54
13011;BME280;6786;57.632;11.962;2023-02-19T02:06:43;100245.41;;;18.16;38.75
13011;BME280;6786;57.632;11.962;2023-02-19T02:09:15;100345.25;;;18.74;38.51
13011;BME280;6786;57.632;11.962;2023-02-19T02:12:00;100354.16;;;18.74;38.51
13011;BME280;6786;57.632;11.962;2023-02-19T02:14:32;100348.94;;;18.73;38.58
13011;BME280;6786;57.632;11.962;2023-02-19T02:17:08;100347.94;;;18.74;38.21
13011;BME280;6786;57.632;11.962;2023-02-19T02:20:00;100348.94;;;18.73;38.11
13011;BME280;6786;57.632;11.962;2023-02-19T02:22:35;100264.00;;;18.18;38.36
13011;BME280;6786;57.632;11.962;2023-02-19T02:25:35;100350.19;;;18.69;37.97
13011;BME280;6786;57.632;11.962;2023-02-19T02:28:21;100350.19;;;18.69;38.21
13011;BME280;6786;57.632;11.962;2023-02-19T02:30:59;100353.84;;;18.68;38.55
13011;BME280;6786;57.632;11.962;2023-02-19T02:33:31;100267.78;;;18.06;38.38
13011;BME280;6786;57.632;11.962;2023-02-19T02:36:06;100359.22;;;18.68;38.57
13011;BME280;6786;57.632;11.962;2023-02-19T02:38:38;100281.72;;;18.19;38.51
13011;BME280;6786;57.632;11.962;2023-02-19T02:41:08;100181.78;;;17.63;38.56
13011;BME280;6786;57.632;11.962;2023-02-19T02:43:37;100350.50;;;18.66;38.59
13011;BME280;6786;57.632;11.962;2023-02-19T02:46:09;100362.59;;;18.70;38.44
13011;BME280;6786;57.632;11.962;2023-02-19T02:48:41;100373.31;;;18.70;38.56
13011;BME280;6786;57.632;11.962;2023-02-19T02:51:15;100374.28;;;18.69;38.47
13011;BME280;6786;57.632;11.962;2023-02-19T02:53:49;100373.31;;;18.70;38.50
13011;BME280;6786;57.632;11.962;2023-02-19T02:56:36;100367.94;;;18.70;38.42
13011;BME280;6786;57.632;11.962;2023-02-19T02:59:09;100378.66;;;18.70;38.49
13011;BME280;6786;57.632;11.962;2023-02-19T03:01:43;100378.66;;;18.70;38.33
13011;BME280;6786;57.632;11.962;2023-02-19T03:04:33;100378.94;;;18.67;38.48
13011;BME280;6786;57.632;11.962;2023-02-19T03:07:05;100385.13;;;18.67;38.46
13011;BME280;6786;57.632;11.962;2023-02-19T03:09:36;100389.38;;;18.70;38.50
13011;BME280;6786;57.632;11.962;2023-02-19T03:12:10;100318.59;;;18.25;38.43
13011;BME280;6786;57.632;11.962;2023-02-19T03:15:02;100355.81;;;18.47;38.38
13011;BME280;6786;57.632;11.962;2023-02-19T03:17:53;100361.03;;;18.48;38.35
13011;BME280;6786;57.632;11.962;2023-02-19T03:20:44;100373.59;;;18.48;38.41
13011;BME280;6786;57.632;11.962;2023-02-19T03:23:15;100373.59;;;18.48;38.46
13011;BME280;6786;57.632;11.962;2023-02-19T03:25:45;100394.44;;;18.54;38.47
13011;BME280;6786;57.632;11.962;2023-02-19T03:28:32;100402.88;;;18.59;38.35
13011;BME280;6786;57.632;11.962;2023-02-19T03:31:21;100411.06;;;18.67;38.42
13011;BME280;6786;57.632;11.962;2023-02-19T03:33:55;100417.81;;;18.71;38.34
13011;BME280;6786;57.632;11.962;2023-02-19T03:36:28;100422.88;;;18.74;38.31
13011;BME280;6786;57.632;11.962;2023-02-19T03:38:59;100418.66;;;18.62;38.27
13011;BME280;6786;57.632;11.962;2023-02-19T03:41:33;100410.75;;;18.60;38.39
13011;BME280;6786;57.632;11.962;2023-02-19T03:44:08;100442.63;;;18.73;38.24
13011;BME280;6786;57.632;11.962;2023-02-19T03:46:44;100442.06;;;18.79;38.20
13011;BME280;6786;57.632;11.962;2023-02-19T03:49:18;100437.00;;;18.76;38.06
13011;BME280;6786;57.632;11.962;2023-02-19T03:51:53;100446.72;;;18.77;38.16
13011;BME280;6786;57.632;11.962;2023-02-19T03:54:32;100446.84;;;18.75;38.13
13011;BME280;6786;57.632;11.962;2023-02-19T03:57:05;100447.69;;;18.76;38.30
13011;BME280;6786;57.632;11.962;2023-02-19T03:59:41;100445.16;;;18.74;38.21
13011;BME280;6786;57.632;11.962;2023-02-19T04:02:12;100446.97;;;18.74;38.21
13011;BME280;6786;57.632;11.962;2023-02-19T04:04:44;100444.31;;;18.74;38.24
13011;BME280;6786;57.632;11.962;2023-02-19T04:07:14;100444.31;;;18.74;38.20
13011;BME280;6786;57.632;11.962;2023-02-19T04:09:44;100422.59;;;18.58;38.25
13011;BME280;6786;57.632;11.962;2023-02-19T04:12:16;100429.38;;;18.62;38.13
13011;BME280;6786;57.632;11.962;2023-02-19T04:14:49;100448.81;;;18.73;38.07
13011;BME280;6786;57.632;11.962;2023-02-19T04:17:24;100461.38;;;18.73;38.24
13011;BME280;6786;57.632;11.962;2023-02-19T04:19:57;100456.97;;;18.72;38.11
13011;BME280;6786;57.632;11.962;2023-02-19T04:22:27;100435.28;;;18.56;38.06
13011;BME280;6786;57.632;11.962;2023-02-19T04:24:56;100419.78;;;18.50;38.11
13011;BME280;6786;57.632;11.962;2023-02-19T04:27:24;100471.06;;;18.74;38.23
13011;BME280;6786;57.632;11.962;2023-02-19T04:29:53;100458.69;;;18.73;37.93
13011;BME280;6786;57.632;11.962;2023-02-19T04:32:21;100477.28;;;18.74;38.26
13011;BME280;6786;57.632;11.962;2023-02-19T04:34:49;100448.50;;;18.57;38.09
13011;BME280;6786;57.632;11.962;2023-02-19T04:37:21;100447.69;;;18.57;38.08
13011;BME280;6786;57.632;11.962;2023-02-19T04:39:49;100487.13;;;18.74;38.10
13011;BME280;6786;57.632;11.962;2023-02-19T04:42:17;100470.94;;;18.66;38.21
13011;BME280;6786;57.632;11.962;2023-02-19T04:44:45;100490.81;;;18.73;38.16
13011;BME280;6786;57.632;11.962;2023-02-19T04:47:13;100487.28;;;18.72;38.17
13011;BME280;6786;57.632;11.962;2023-02-19T04:49:43;100487.13;;;18.74;38.07
13011;BME280;6786;57.632;11.962;2023-02-19T04:52:11;100466.41;;;18.57;38.08
13011;BME280;6786;57.632;11.962;2023-02-19T04:54:41;100492.63;;;18.72;38.07
13011;BME280;6786;57.632;11.962;2023-02-19T04:57:09;100485.47;;;18.73;38.07
13011;BME280;6786;57.632;11.962;2023-02-19T04:59:38;100501.53;;;18.73;38.06
13011;BME280;6786;57.632;11.962;2023-02-19T05:02:06;100506.88;;;18.73;38.10
13011;BME280;6786;57.632;11.962;2023-02-19T05:04:34;100506.88;;;18.73;38.11
13011;BME280;6786;57.632;11.962;2023-02-19T05:07:03;100501.53;;;18.73;38.05
13011;BME280;6786;57.632;11.962;2023-02-19T05:09:31;100496.41;;;18.60;38.02
13011;BME280;6786;57.632;11.962;2023-02-19T05:12:00;100521.94;;;18.74;38.00
13011;BME280;6786;57.632;11.962;2023-02-19T05:14:29;100526.59;;;18.72;37.99
13011;BME280;6786;57.632;11.962;2023-02-19T05:16:57;100525.63;;;18.73;38.01
13011;BME280;6786;57.632;11.962;2023-02-19T05:19:25;100491.59;;;18.45;38.02
13011;BME280;6786;57.632;11.962;2023-02-19T05:21:54;100533.78;;;18.71;37.93
13011;BME280;6786;57.632;11.962;2023-02-19T05:24:22;100539.81;;;18.73;37.76
13011;BME280;6786;57.632;11.962;2023-02-19T05:26:52;100539.00;;;18.73;37.83
13011;BME280;6786;57.632;11.962;2023-02-19T05:29:22;100533.66;;;18.73;38.06
13011;BME280;6786;57.632;11.962;2023-02-19T05:31:50;100538.00;;;18.74;37.90
13011;BME280;6786;57.632;11.962;2023-02-19T05:34:18;100537.00;;;18.75;37.83
13011;BME280;6786;57.632;11.962;2023-02-19T05:36:47;100547.72;;;18.75;37.89
13011;BME280;6786;57.632;11.962;2023-02-19T05:39:15;100537.28;;;18.72;37.88
13011;BME280;6786;57.632;11.962;2023-02-19T05:41:44;100550.41;;;18.75;37.95
13011;BME280;6786;57.632;11.962;2023-02-19T05:44:12;100547.72;;;18.75;37.88
13011;BME280;6786;57.632;11.962;2023-02-19T05:46:41;100493.84;;;18.40;37.90
13011;BME280;6786;57.632;11.962;2023-02-19T05:49:10;100553.94;;;18.75;37.89
13011;BME280;6786;57.632;11.962;2023-02-19T05:51:38;100562.81;;;18.76;37.79
13011;BME280;6786;57.632;11.962;2023-02-19T05:54:06;100563.78;;;18.75;37.83
13011;BME280;6786;57.632;11.962;2023-02-19T05:56:37;100563.78;;;18.75;37.84
13011;BME280;6786;57.632;11.962;2023-02-19T05:59:07;100564.06;;;18.72;37.91
13011;BME280;6786;57.632;11.962;2023-02-19T06:01:42;100547.41;;;18.59;37.83
13011;BME280;6786;57.632;11.962;2023-02-19T06:04:11;100550.50;;;18.54;38.02
13011;BME280;6786;57.632;11.962;2023-02-19T06:06:40;100562.63;;;18.58;37.88
13011;BME280;6786;57.632;11.962;2023-02-19T06:09:10;100578.16;;;18.74;37.79
13011;BME280;6786;57.632;11.962;2023-02-19T06:11:40;100578.16;;;18.74;37.69
13011;BME280;6786;57.632;11.962;2023-02-19T06:14:11;100588.88;;;18.74;37.87
13011;BME280;6786;57.632;11.962;2023-02-19T06:16:42;100588.88;;;18.74;37.76
13011;BME280;6786;57.632;11.962;2023-02-19T06:19:11;100582.53;;;18.75;37.78
13011;BME280;6786;57.632;11.962;2023-02-19T06:21:40;100583.53;;;18.74;37.74
13011;BME280;6786;57.632;11.962;2023-02-19T06:24:08;100588.88;;;18.74;37.77
13011;BME280;6786;57.632;11.962;2023-02-19T06:26:37;100600.56;;;18.73;37.82
13011;BME280;6786;57.632;11.962;2023-02-19T06:29:05;100571.75;;;18.56;38.00
13011;BME280;6786;57.632;11.962;2023-02-19T06:31:34;100596.19;;;18.72;37.87
13011;BME280;6786;57.632;11.962;2023-02-19T06:34:04;100566.81;;;18.51;37.79
13011;BME280;6786;57.632;11.962;2023-02-19T06:36:33;100550.28;;;18.37;37.80
13011;BME280;6786;57.632;11.962;2023-02-19T06:39:02;100600.97;;;18.68;37.79
13011;BME280;6786;57.632;11.962;2023-02-19T06:41:32;100615.06;;;18.70;37.91
13011;BME280;6786;57.632;11.962;2023-02-19T06:44:00;100587.13;;;18.54;37.77
13011;BME280;6786;57.632;11.962;2023-02-19T06:46:29;100619.59;;;18.70;37.79
13011;BME280;6786;57.632;11.962;2023-02-19T06:48:58;100612.53;;;18.69;37.88
13011;BME280;6786;57.632;11.962;2023-02-19T06:51:28;100615.91;;;18.71;37.84
13011;BME280;6786;57.632;11.962;2023-02-19T06:53:58;100611.56;;;18.70;37.78
13011;BME280;6786;57.632;11.962;2023-02-19T06:56:29;100610.56;;;18.71;37.80
13011;BME280;6786;57.632;11.962;2023-02-19T06:58:59;100568.75;;;18.40;37.93
13011;BME280;6786;57.632;11.962;2023-02-19T07:01:29;100617.88;;;18.69;37.73
13011;BME280;6786;57.632;11.962;2023-02-19T07:03:58;100616.91;;;18.70;37.77
13011;BME280;6786;57.632;11.962;2023-02-19T07:06:30;100624.09;;;18.69;37.76
13011;BME280;6786;57.632;11.962;2023-02-19T07:09:00;100615.91;;;18.71;37.93
13011;BME280;6786;57.632;11.962;2023-02-19T07:11:32;100612.53;;;18.69;37.79
13011;BME280;6786;57.632;11.962;2023-02-19T07:14:02;100613.09;;;18.63;37.66
13011;BME280;6786;57.632;11.962;2023-02-19T07:16:31;100634.66;;;18.71;37.75
13011;BME280;6786;57.632;11.962;2023-02-19T07:19:00;100632.97;;;18.70;37.70
13011;BME280;6786;57.632;11.962;2023-02-19T07:21:33;100641.00;;;18.70;37.65
13011;BME280;6786;57.632;11.962;2023-02-19T07:24:04;100640.16;;;18.69;37.75
13011;BME280;6786;57.632;11.962;2023-02-19T07:26:33;100646.34;;;18.70;37.68
13011;BME280;6786;57.632;11.962;2023-02-19T07:29:02;100650.72;;;18.71;37.74
13011;BME280;6786;57.632;11.962;2023-02-19T07:31:30;100636.59;;;18.59;37.76
13011;BME280;6786;57.632;11.962;2023-02-19T07:33:58;100653.66;;;18.68;37.70
13011;BME280;6786;57.632;11.962;2023-02-19T07:36:26;100624.88;;;18.51;37.72
13011;BME280;6786;57.632;11.962;2023-02-19T07:38:58;100655.09;;;18.72;37.70
13011;BME280;6786;57.632;11.962;2023-02-19T07:41:29;100629.41;;;18.60;37.64
13011;BME280;6786;57.632;11.962;2023-02-19T07:43:58;100656.16;;;18.90;37.49
13011;BME280;6786;57.632;11.962;2023-02-19T07:46:28;100651.50;;;18.92;37.57
13011;BME280;6786;57.632;11.962;2023-02-19T07:48:58;100638.28;;;19.00;37.44
13011;BME280;6786;57.632;11.962;2023-02-19T07:51:32;100643.69;;;19.19;37.45
13011;BME280;6786;57.632;11.962;2023-02-19T07:54:02;100607.56;;;19.04;37.43
13011;BME280;6786;57.632;11.962;2023-02-19T07:56:34;100644.81;;;19.26;37.47
13011;BME280;6786;57.632;11.962;2023-02-19T07:59:02;100644.81;;;19.26;37.62
13011;BME280;6786;57.632;11.962;2023-02-19T08:01:32;100659.22;;;19.25;37.65
13011;BME280;6786;57.632;11.962;2023-02-19T08:04:18;100660.47;;;19.21;37.55
13011;BME280;6786;57.632;11.962;2023-02-19T08:06:46;100680.06;;;19.21;37.61
13011;BME280;6786;57.632;11.962;2023-02-19T08:09:15;100681.19;;;19.19;37.68
13011;BME280;6786;57.632;11.962;2023-02-19T08:11:44;100688.53;;;19.17;37.61
13011;BME280;6786;57.632;11.962;2023-02-19T08:14:34;100677.22;;;19.13;37.64
13011;BME280;6786;57.632;11.962;2023-02-19T08:17:02;100673.00;;;19.11;37.70
13011;BME280;6786;57.632;11.962;2023-02-19T08:19:31;100666.94;;;19.09;37.78
13011;BME280;6786;57.632;11.962;2023-02-19T08:21:59;100674.97;;;19.09;37.68
13011;BME280;6786;57.632;11.962;2023-02-19T08:24:29;100673.25;;;19.08;37.66
13011;BME280;6786;57.632;11.962;2023-02-19T08:26:59;100680.47;;;19.07;37.64
13011;BME280;6786;57.632;11.962;2023-02-19T08:29:27;100685.97;;;19.06;37.58
13011;BME280;6786;57.632;11.962;2023-02-19T08:31:55;100691.31;;;19.06;37.63
13011;BME280;6786;57.632;11.962;2023-02-19T08:34:24;100707.41;;;19.06;37.52
13011;BME280;6786;57.632;11.962;2023-02-19T08:36:52;100705.69;;;19.05;37.52
13011;BME280;6786;57.632;11.962;2023-02-19T08:39:20;100694.97;;;19.05;37.52
13011;BME280;6786;57.632;11.962;2023-02-19T08:41:50;100704.84;;;19.04;37.60
13011;BME280;6786;57.632;11.962;2023-02-19T08:44:18;100704.00;;;19.04;37.58
13011;BME280;6786;57.632;11.962;2023-02-19T08:46:46;100711.03;;;19.05;37.49
13011;BME280;6786;57.632;11.962;2023-02-19T08:49:14;100648.56;;;18.65;37.60
13011;BME280;6786;57.632;11.962;2023-02-19T08:51:43;100714.72;;;19.04;37.53
13011;BME280;6786;57.632;11.962;2023-02-19T08:54:11;100720.19;;;19.02;37.60
13011;BME280;6786;57.632;11.962;2023-02-19T08:56:39;100717.66;;;19.01;37.50
13011;BME280;6786;57.632;11.962;2023-02-19T08:59:09;100723.75;;;19.03;37.56
13011;BME280;6786;57.632;11.962;2023-02-19T09:01:37;100677.94;;;18.76;37.52
13011;BME280;6786;57.632;11.962;2023-02-19T09:04:06;100718.38;;;19.03;37.44
13011;BME280;6786;57.632;11.962;2023-02-19T09:06:35;100722.03;;;19.02;37.56
13011;BME280;6786;57.632;11.962;2023-02-19T09:09:05;100722.03;;;19.02;37.58
13011;BME280;6786;57.632;11.962;2023-02-19T09:11:33;100714.09;;;18.91;37.34
13011;BME280;6786;57.632;11.962;2023-02-19T09:14:02;100727.38;;;19.02;37.34
13011;BME280;6786;57.632;11.962;2023-02-19T09:16:35;100727.38;;;19.02;37.49
13011;BME280;6786;57.632;11.962;2023-02-19T09:19:03;100728.25;;;19.02;37.52
13011;BME280;6786;57.632;11.962;2023-02-19T09:21:31;100731.91;;;19.01;37.27
13011;BME280;6786;57.632;11.962;2023-02-19T09:24:00;100743.44;;;19.02;37.47
13011;BME280;6786;57.632;11.962;2023-02-19T09:26:28;100735.28;;;19.03;37.47
13011;BME280;6786;57.632;11.962;2023-02-19T09:28:56;100716.78;;;18.91;37.33
13011;BME280;6786;57.632;11.962;2023-02-19T09:31:24;100735.28;;;19.03;37.32
13011;BME280;6786;57.632;11.962;2023-02-19T09:33:54;100748.81;;;19.02;37.32
13011;BME280;6786;57.632;11.962;2023-02-19T09:36:22;100748.94;;;19.00;37.41
13011;BME280;6786;57.632;11.962;2023-02-19T09:38:50;100679.28;;;18.61;37.44
13011;BME280;6786;57.632;11.962;2023-02-19T09:41:24;100749.06;;;18.99;37.43
13011;BME280;6786;57.632;11.962;2023-02-19T09:43:56;100746.41;;;18.99;37.53
13011;BME280;6786;57.632;11.962;2023-02-19T09:46:29;100750.78;;;19.00;37.33
13011;BME280;6786;57.632;11.962;2023-02-19T09:49:02;100706.41;;;18.77;37.33
13011;BME280;6786;57.632;11.962;2023-02-19T09:51:33;100748.25;;;18.98;37.41
13011;BME280;6786;57.632;11.962;2023-02-19T09:54:05;100754.44;;;18.99;37.33
13011;BME280;6786;57.632;11.962;2023-02-19T09:56:34;100748.38;;;18.97;37.27
13011;BME280;6786;57.632;11.962;2023-02-19T09:59:03;100768.81;;;18.98;37.61
13011;BME280;6786;57.632;11.962;2023-02-19T10:01:36;100765.16;;;18.99;37.20
13011;BME280;6786;57.632;11.962;2023-02-19T10:04:09;100775.84;;;18.99;37.19
13011;BME280;6786;57.632;11.962;2023-02-19T10:06:38;100777.56;;;19.00;37.10
13011;BME280;6786;57.632;11.962;2023-02-19T10:09:20;100776.72;;;18.99;36.85
13011;BME280;6786;57.632;11.962;2023-02-19T10:11:50;100755.13;;;18.71;37.07
13011;BME280;6786;57.632;11.962;2023-02-19T10:14:25;100797.28;;;18.99;37.20
13011;BME280;6786;57.632;11.962;2023-02-19T10:17:03;100770.41;;;18.80;37.02
13011;BME280;6786;57.632;11.962;2023-02-19T10:19:33;100806.19;;;18.99;37.21
13011;BME280;6786;57.632;11.962;2023-02-19T10:22:03;100796.31;;;19.00;37.28
13011;BME280;6786;57.632;11.962;2023-02-19T10:24:31;100734.09;;;18.66;37.22
13011;BME280;6786;57.632;11.962;2023-02-19T10:27:07;100796.06;;;19.03;37.25
13011;BME280;6786;57.632;11.962;2023-02-19T10:29:39;100788.03;;;19.03;37.22
13011;BME280;6786;57.632;11.962;2023-02-19T10:32:15;100782.66;;;19.03;37.07
13011;BME280;6786;57.632;11.962;2023-02-19T10:35:06;100790.69;;;19.03;36.82
13011;BME280;6786;57.632;11.962;2023-02-19T10:37:41;100773.91;;;19.01;37.18
13011;BME280;6786;57.632;11.962;2023-02-19T10:40:22;100794.59;;;18.99;37.25
13011;BME280;6786;57.632;11.962;2023-02-19T10:42:55;100797.28;;;18.99;37.16
13011;BME280;6786;57.632;11.962;2023-02-19T10:45:32;100791.22;;;18.97;37.28
13011;BME280;6786;57.632;11.962;2023-02-19T10:48:05;100770.13;;;18.83;37.28
13011;BME280;6786;57.632;11.962;2023-02-19T10:50:37;100798.41;;;18.96;37.30
13011;BME280;6786;57.632;11.962;2023-02-19T10:53:20;100802.91;;;18.96;37.00
13011;BME280;6786;57.632;11.962;2023-02-19T10:56:05;100768.97;;;18.76;36.61
13011;BME280;6786;57.632;11.962;2023-02-19T10:58:34;100797.56;;;18.96;37.22
13011;BME280;6786;57.632;11.962;2023-02-19T11:01:12;100765.31;;;18.77;37.32
13011;BME280;6786;57.632;11.962;2023-02-19T11:03:46;100799.41;;;18.95;37.25
13011;BME280;6786;57.632;11.962;2023-02-19T11:06:19;100746.38;;;18.69;37.28
13011;BME280;6786;57.632;11.962;2023-02-19T11:08:53;100780.31;;;18.89;37.20
13011;BME280;6786;57.632;11.962;2023-02-19T11:11:35;100774.50;;;18.84;36.91
13011;BME280;6786;57.632;11.962;2023-02-19T11:14:14;100797.41;;;18.97;37.03
13011;BME280;6786;57.632;11.962;2023-02-19T11:16:46;100761.66;;;18.78;37.20
13011;BME280;6786;57.632;11.962;2023-02-19T11:19:28;100781.47;;;18.96;36.80
13011;BME280;6786;57.632;11.962;2023-02-19T11:22:00;100771.28;;;18.90;37.17
13011;BME280;6786;57.632;11.962;2023-02-19T11:24:31;100792.19;;;18.96;37.17
13011;BME280;6786;57.632;11.962;2023-02-19T11:27:05;100793.19;;;18.95;37.29
13011;BME280;6786;57.632;11.962;2023-02-19T11:29:33;100795.88;;;18.95;37.26
13011;BME280;6786;57.632;11.962;2023-02-19T11:32:24;100812.78;;;18.95;36.83
13011;BME280;6786;57.632;11.962;2023-02-19T11:35:13;100797.56;;;18.96;36.76
13011;BME280;6786;57.632;11.962;2023-02-19T11:37:55;100781.72;;;18.83;36.87
13011;BME280;6786;57.632;11.962;2023-02-19T11:40:36;100763.03;;;18.72;36.91
13011;BME280;6786;57.632;11.962;2023-02-19T11:43:32;100788.81;;;18.94;36.87
13011;BME280;6786;57.632;11.962;2023-02-19T11:46:08;100785.41;;;18.92;37.10
13011;BME280;6786;57.632;11.962;2023-02-19T11:48:50;100772.28;;;18.89;36.97
13011;BME280;6786;57.632;11.962;2023-02-19T11:51:35;100788.81;;;18.94;36.88
13011;BME280;6786;57.632;11.962;2023-02-19T11:54:18;100791.94;;;18.99;36.69
13011;BME280;6786;57.632;11.962;2023-02-19T11:56:54;100734.72;;;18.70;37.08
13011;BME280;6786;57.632;11.962;2023-02-19T11:59:29;100781.22;;;18.99;37.19
13011;BME280;6786;57.632;11.962;2023-02-19T12:02:19;100730.31;;;18.69;36.96
13011;BME280;6786;57.632;11.962;2023-02-19T12:08:02;100765.69;;;18.93;37.01
13011;BME280;6786;57.632;11.962;2023-02-19T12:10:51;100761.78;;;18.97;37.01
13011;BME280;6786;57.632;11.962;2023-02-19T12:13:31;100724.88;;;18.80;37.18
13011;BME280;6786;57.632;11.962;2023-02-19T12:16:16;100756.41;;;18.97;36.93
13011;BME280;6786;57.632;11.962;2023-02-19T12:19:15;100755.56;;;18.96;37.02
13011;BME280;6786;57.632;11.962;2023-02-19T12:21:57;100728.97;;;18.84;37.15
13011;BME280;6786;57.632;11.962;2023-02-19T12:25:08;100749.34;;;18.96;36.96
13011;BME280;6786;57.632;11.962;2023-02-19T12:27:54;100746.66;;;18.96;37.20
13011;BME280;6786;57.632;11.962;2023-02-19T12:30:41;100745.97;;;18.94;37.25
13011;BME280;6786;57.632;11.962;2023-02-19T12:33:30;100692.53;;;18.62;37.00
13011;BME280;6786;57.632;11.962;2023-02-19T12:36:12;100735.19;;;18.84;37.24
13011;BME280;6786;57.632;11.962;2023-02-19T12:38:44;100726.03;;;18.87;37.39
13011;BME280;6786;57.632;11.962;2023-02-19T12:41:24;100712.50;;;18.79;37.35
13011;BME280;6786;57.632;11.962;2023-02-19T12:44:01;100729.91;;;18.94;37.45
13011;BME280;6786;57.632;11.962;2023-02-19T12:46:35;100721.41;;;18.89;37.45
13011;BME280;6786;57.632;11.962;2023-02-19T12:49:10;100725.09;;;18.88;37.42
13011;BME280;6786;57.632;11.962;2023-02-19T12:51:43;100724.53;;;18.94;37.38
13011;BME280;6786;57.632;11.962;2023-02-19T12:54:17;100719.19;;;18.94;37.35
13011;BME280;6786;57.632;11.962;2023-02-19T12:56:54;100713.84;;;18.94;37.41
13011;BME280;6786;57.632;11.962;2023-02-19T12:59:30;100713.84;;;18.94;37.45
13011;BME280;6786;57.632;11.962;2023-02-19T13:02:05;100704.81;;;18.95;37.41
13011;BME280;6786;57.632;11.962;2023-02-19T13:04:44;100686.41;;;18.81;37.47
13011;BME280;6786;57.632;11.962;2023-02-19T13:07:17;100694.34;;;18.92;37.47
13011;BME280;6786;57.632;11.962;2023-02-19T13:09:50;100695.09;;;18.94;37.42
13011;BME280;6786;57.632;11.962;2023-02-19T13:12:22;100671.78;;;18.85;37.56
13011;BME280;6786;57.632;11.962;2023-02-19T13:14:57;100674.63;;;18.93;37.45
13011;BME280;6786;57.632;11.962;2023-02-19T13:17:33;100667.31;;;18.95;37.44
13011;BME280;6786;57.632;11.962;2023-02-19T13:20:16;100640.34;;;18.77;37.33
13011;BME280;6786;57.632;11.962;2023-02-19T13:22:50;100672.66;;;18.95;37.45